Airport View

Enter ICAO identifier to see the current METAR for that AWOS.

KFNL for example

K8S0 232115Z 15005KT

23 Jul 2014 21:47

Other Area AWOS: KCTB - CWFJ - KGPI - CWRY

TAF KCTB 231740Z 2318/2418 13008KT P6SM SKC FM232200 17011KT P6SM VCTS SCT090CB BKN150 TEMPO 2401/2404 VRB30G40KT 6SM TSRA BKN070CB FM240600 25015G25KT P6SM SKC FM241000 26028G42KT P6SM SKC